createdAt,value
2023-05-09T00:00:57.834Z,12.58
2023-05-09T00:03:24.649Z,12.59
2023-05-09T00:05:51.665Z,12.60
2023-05-09T00:08:18.452Z,12.59
2023-05-09T00:10:45.190Z,12.55
2023-05-09T00:13:12.320Z,12.58
2023-05-09T00:15:39.153Z,12.38
2023-05-09T00:18:06.083Z,12.08
2023-05-09T00:20:34.185Z,11.86
2023-05-09T00:23:01.051Z,12.01
2023-05-09T00:25:27.862Z,11.94
2023-05-09T00:27:54.613Z,11.88
2023-05-09T00:30:21.535Z,11.81
2023-05-09T00:32:48.336Z,11.74
2023-05-09T00:35:15.554Z,11.61
2023-05-09T00:37:42.677Z,11.48
2023-05-09T00:40:09.853Z,11.45
2023-05-09T00:42:38.007Z,11.31
2023-05-09T00:45:05.318Z,11.25
2023-05-09T00:47:32.483Z,11.13
2023-05-09T00:49:59.762Z,11.00
2023-05-09T00:52:27.324Z,10.86
2023-05-09T00:54:55.659Z,10.89
2023-05-09T00:57:23.103Z,10.87
2023-05-09T00:59:50.035Z,10.65
2023-05-09T01:02:18.228Z,10.75
2023-05-09T01:04:48.090Z,10.79
2023-05-09T01:07:26.179Z,10.82
2023-05-09T01:10:17.111Z,10.82
2023-05-09T01:12:54.479Z,10.85
2023-05-09T01:15:31.278Z,10.83
2023-05-09T01:18:16.308Z,10.91
2023-05-09T01:20:46.601Z,10.59
2023-05-09T01:23:39.403Z,10.65
2023-05-09T01:26:36.638Z,10.54
2023-05-09T01:29:41.347Z,10.52
2023-05-09T01:32:11.595Z,10.52
2023-05-09T01:34:42.170Z,10.33
2023-05-09T01:37:11.239Z,10.41
2023-05-09T01:39:41.481Z,10.33
2023-05-09T01:42:11.897Z,10.32
2023-05-09T01:44:41.632Z,10.43
2023-05-09T01:47:09.689Z,10.50
2023-05-09T01:49:38.625Z,10.66
2023-05-09T01:52:08.778Z,10.66
2023-05-09T01:54:37.207Z,10.71
2023-05-09T01:57:06.229Z,10.76
2023-05-09T01:59:34.896Z,10.79
2023-05-09T02:02:03.984Z,10.86
2023-05-09T02:04:31.317Z,11.02
2023-05-09T02:06:59.245Z,11.00
2023-05-09T02:09:26.341Z,11.01
2023-05-09T02:11:53.952Z,10.88
2023-05-09T02:14:20.947Z,10.78
2023-05-09T02:16:48.184Z,10.89
2023-05-09T02:19:15.239Z,10.80
2023-05-09T02:21:42.212Z,10.99
2023-05-09T02:24:08.961Z,10.80
2023-05-09T02:26:36.451Z,10.65
2023-05-09T02:29:05.281Z,10.45
2023-05-09T02:31:35.413Z,10.35
2023-05-09T02:34:04.295Z,10.38
2023-05-09T02:36:32.782Z,10.28
2023-05-09T02:39:00.369Z,10.12
2023-05-09T02:41:30.203Z,9.95
2023-05-09T02:43:56.971Z,10.00
2023-05-09T02:46:24.167Z,9.84
2023-05-09T02:48:52.612Z,9.84
2023-05-09T02:51:19.357Z,9.90
2023-05-09T02:53:46.095Z,9.81
2023-05-09T02:56:12.860Z,9.87
2023-05-09T02:58:39.597Z,9.86
2023-05-09T03:01:06.367Z,9.74
2023-05-09T03:03:34.846Z,9.71
2023-05-09T03:06:01.716Z,9.73
2023-05-09T03:08:28.498Z,9.85
2023-05-09T03:10:55.313Z,10.01
2023-05-09T03:13:22.205Z,10.08
2023-05-09T03:15:49.088Z,10.02
2023-05-09T03:18:16.086Z,10.00
2023-05-09T03:20:42.975Z,10.04
2023-05-09T03:23:10.364Z,9.97
2023-05-09T03:25:37.154Z,9.89
2023-05-09T03:28:05.201Z,9.90
2023-05-09T03:30:31.971Z,9.71
2023-05-09T03:32:58.750Z,9.68
2023-05-09T03:35:25.494Z,9.78
2023-05-09T03:37:52.246Z,9.75
2023-05-09T03:40:19.026Z,9.63
2023-05-09T03:42:45.862Z,9.68
2023-05-09T03:45:12.790Z,9.67
2023-05-09T03:47:39.702Z,9.71
2023-05-09T03:50:07.220Z,9.72
2023-05-09T03:52:34.015Z,9.62
2023-05-09T03:55:00.801Z,9.57
2023-05-09T03:57:27.545Z,9.55
2023-05-09T03:59:54.295Z,9.61
2023-05-09T04:02:21.199Z,9.47
2023-05-09T04:04:48.427Z,9.39
2023-05-09T04:07:15.159Z,9.36
2023-05-09T04:09:42.982Z,9.30
2023-05-09T04:12:09.752Z,9.27
2023-05-09T04:14:36.517Z,9.23
2023-05-09T04:17:03.702Z,9.16
2023-05-09T04:19:30.817Z,8.97
2023-05-09T04:21:57.557Z,9.03
2023-05-09T04:24:24.346Z,9.07
2023-05-09T04:26:51.427Z,9.19
2023-05-09T04:29:18.187Z,9.20
2023-05-09T04:31:45.100Z,9.15
2023-05-09T04:34:12.051Z,9.20
2023-05-09T04:36:38.814Z,9.16
2023-05-09T04:39:05.551Z,9.06
2023-05-09T04:41:32.539Z,9.11
2023-05-09T04:43:59.283Z,9.05
2023-05-09T04:46:26.220Z,8.94
2023-05-09T04:48:53.014Z,8.89
2023-05-09T04:51:19.782Z,8.87
2023-05-09T04:53:46.568Z,8.88
2023-05-09T04:56:13.408Z,8.87
2023-05-09T04:58:40.504Z,8.91
2023-05-09T05:01:07.397Z,8.95
2023-05-09T05:03:34.508Z,8.97
2023-05-09T05:06:01.233Z,9.00
2023-05-09T05:08:28.017Z,9.04
2023-05-09T05:10:54.734Z,8.96
2023-05-09T05:13:21.845Z,8.95
2023-05-09T05:15:48.862Z,8.94
2023-05-09T05:18:15.877Z,9.08
2023-05-09T05:20:42.755Z,9.13
2023-05-09T05:23:09.812Z,9.13
2023-05-09T05:25:36.758Z,9.16
2023-05-09T05:28:03.515Z,9.33
2023-05-09T05:30:32.775Z,9.41
2023-05-09T05:33:00.961Z,9.39
2023-05-09T05:35:28.949Z,9.36
2023-05-09T05:37:55.717Z,9.55
2023-05-09T05:40:22.503Z,9.63
2023-05-09T05:42:49.360Z,9.71
2023-05-09T05:45:16.635Z,9.75
2023-05-09T05:47:43.799Z,9.95
2023-05-09T05:50:12.128Z,10.00
2023-05-09T05:52:40.127Z,10.13
2023-05-09T05:55:07.739Z,10.31
2023-05-09T05:57:35.474Z,10.53
2023-05-09T06:00:03.901Z,10.76
2023-05-09T06:02:30.845Z,11.10
2023-05-09T06:04:57.663Z,11.37
2023-05-09T06:07:24.452Z,11.70
2023-05-09T06:09:51.212Z,11.84
2023-05-09T06:12:17.942Z,12.03
2023-05-09T06:14:44.671Z,12.20
2023-05-09T06:17:11.587Z,12.44
2023-05-09T06:19:38.549Z,12.66
2023-05-09T06:22:05.630Z,12.97
2023-05-09T06:24:36.320Z,13.04
2023-05-09T06:27:04.319Z,13.14
2023-05-09T06:29:31.125Z,13.38
2023-05-09T06:31:57.883Z,13.54
2023-05-09T06:34:24.689Z,13.59
2023-05-09T06:36:51.518Z,13.65
2023-05-09T06:39:18.286Z,13.78
2023-05-09T06:41:45.146Z,14.02
2023-05-09T06:44:11.920Z,14.42
2023-05-09T06:46:38.874Z,14.73
2023-05-09T06:49:08.754Z,14.92
2023-05-09T06:51:35.574Z,15.19
2023-05-09T06:54:02.313Z,15.61
2023-05-09T06:56:29.204Z,16.21
2023-05-09T06:58:56.156Z,16.79
2023-05-09T07:01:23.031Z,17.42
2023-05-09T07:03:49.823Z,17.92
2023-05-09T07:06:16.665Z,18.12
2023-05-09T07:08:43.407Z,18.35
2023-05-09T07:11:10.208Z,18.67
2023-05-09T07:13:37.053Z,18.97
2023-05-09T07:16:04.175Z,19.24
2023-05-09T07:18:31.073Z,19.42
2023-05-09T07:20:58.367Z,19.48
2023-05-09T07:23:26.207Z,19.66
2023-05-09T07:25:59.191Z,19.78
2023-05-09T07:28:26.202Z,19.92
2023-05-09T07:30:55.420Z,20.12
2023-05-09T07:33:22.304Z,20.52
2023-05-09T07:35:49.138Z,20.76
2023-05-09T07:38:15.930Z,20.93
2023-05-09T07:40:42.685Z,20.88
2023-05-09T07:43:09.443Z,21.13
2023-05-09T07:45:36.610Z,21.27
2023-05-09T07:48:03.680Z,21.48
2023-05-09T07:50:30.584Z,21.79
2023-05-09T07:52:57.361Z,22.38
2023-05-09T07:55:24.172Z,22.80
2023-05-09T07:57:50.964Z,23.31
2023-05-09T08:00:19.654Z,23.57
2023-05-09T08:02:46.654Z,23.81
2023-05-09T08:05:14.094Z,24.05
2023-05-09T08:07:41.134Z,24.32
2023-05-09T08:10:09.263Z,24.68
2023-05-09T08:12:36.101Z,25.06
2023-05-09T08:15:03.263Z,25.49
2023-05-09T08:17:30.212Z,25.92
2023-05-09T08:19:56.977Z,26.06
2023-05-09T08:22:24.780Z,26.35
2023-05-09T08:24:51.592Z,26.43
2023-05-09T08:27:18.353Z,26.57
2023-05-09T08:29:45.576Z,26.68
2023-05-09T08:32:12.411Z,26.98
2023-05-09T08:34:39.599Z,27.06
2023-05-09T08:37:06.327Z,25.86
2023-05-09T08:39:35.062Z,25.41
2023-05-09T08:42:02.560Z,24.84
2023-05-09T08:44:30.799Z,24.07
2023-05-09T08:47:01.044Z,23.53
2023-05-09T08:49:28.319Z,23.73
2023-05-09T08:51:56.183Z,24.38
2023-05-09T08:54:23.827Z,25.01
2023-05-09T08:56:51.575Z,24.96
2023-05-09T08:59:19.016Z,24.93
2023-05-09T09:01:46.177Z,24.73
2023-05-09T09:04:13.009Z,24.48
2023-05-09T09:06:40.856Z,23.64
2023-05-09T09:09:09.275Z,23.15
2023-05-09T09:11:38.925Z,23.32
2023-05-09T09:14:27.780Z,22.95
2023-05-09T09:16:56.164Z,23.40
2023-05-09T09:19:31.161Z,23.94
2023-05-09T09:22:00.278Z,24.72
2023-05-09T09:24:27.114Z,24.88
2023-05-09T09:26:53.968Z,24.46
2023-05-09T09:29:21.201Z,24.16
2023-05-09T09:31:52.409Z,23.64
2023-05-09T09:34:23.393Z,23.13
2023-05-09T09:36:50.747Z,23.39
2023-05-09T09:39:17.657Z,23.99
2023-05-09T09:41:47.097Z,24.78
2023-05-09T09:44:23.316Z,25.49
2023-05-09T09:46:55.659Z,25.53
2023-05-09T09:49:25.122Z,24.49
2023-05-09T09:51:54.387Z,23.44
2023-05-09T09:54:21.659Z,22.45
2023-05-09T09:56:54.990Z,20.92
2023-05-09T09:59:25.185Z,19.98
2023-05-09T10:01:55.769Z,18.92
2023-05-09T10:04:22.993Z,18.56
2023-05-09T10:06:57.475Z,17.96
2023-05-09T10:09:25.866Z,17.77
2023-05-09T10:11:53.808Z,17.55
2023-05-09T10:14:23.400Z,17.36
2023-05-09T10:16:52.157Z,17.55
2023-05-09T10:19:23.829Z,17.32
2023-05-09T10:21:55.936Z,16.92
2023-05-09T10:24:32.966Z,16.69
2023-05-09T10:27:06.211Z,16.66
2023-05-09T10:29:39.013Z,16.53
2023-05-09T10:32:17.766Z,16.99
2023-05-09T10:34:49.539Z,17.44
2023-05-09T10:37:17.400Z,17.73
2023-05-09T10:39:44.533Z,17.94
2023-05-09T10:42:13.910Z,18.14
2023-05-09T10:44:40.811Z,18.27
2023-05-09T10:47:08.053Z,18.29
2023-05-09T10:49:37.311Z,18.29
2023-05-09T10:52:04.667Z,18.49
2023-05-09T10:54:33.731Z,18.83
2023-05-09T10:57:01.211Z,19.95
2023-05-09T10:59:43.485Z,20.02
2023-05-09T11:02:14.772Z,20.42
2023-05-09T11:04:41.643Z,21.02
2023-05-09T11:07:27.494Z,21.10
2023-05-09T11:10:14.979Z,21.34
2023-05-09T11:12:58.934Z,21.77
2023-05-09T11:15:27.612Z,21.96
2023-05-09T11:18:09.836Z,22.29
2023-05-09T11:20:43.670Z,22.88
2023-05-09T11:23:15.932Z,22.97
2023-05-09T11:25:45.656Z,22.88
2023-05-09T11:28:28.255Z,22.27
2023-05-09T11:31:13.052Z,22.27
2023-05-09T11:33:41.508Z,22.47
2023-05-09T11:36:29.492Z,22.30
2023-05-09T11:39:09.733Z,21.74
2023-05-09T11:41:46.025Z,21.67
2023-05-09T11:44:13.861Z,21.58
2023-05-09T11:46:40.611Z,21.64
2023-05-09T11:49:09.589Z,21.53
2023-05-09T11:51:38.396Z,21.64
2023-05-09T11:54:10.601Z,21.28
2023-05-09T11:56:40.004Z,21.35
2023-05-09T11:59:10.664Z,20.81
2023-05-09T12:01:37.649Z,20.45
2023-05-09T12:04:07.130Z,20.28
2023-05-09T12:06:34.020Z,20.07
2023-05-09T12:09:00.804Z,19.84
2023-05-09T12:11:32.527Z,19.67
2023-05-09T12:13:59.318Z,19.97
2023-05-09T12:16:26.335Z,19.97
2023-05-09T12:18:53.776Z,20.38
2023-05-09T12:21:21.811Z,20.72
2023-05-09T12:23:51.527Z,20.78
2023-05-09T12:26:19.903Z,21.07
2023-05-09T12:28:48.634Z,21.12
2023-05-09T12:31:17.224Z,21.02
2023-05-09T12:33:44.110Z,21.07
2023-05-09T12:36:12.767Z,21.12
2023-05-09T12:38:39.911Z,21.02
2023-05-09T12:41:15.547Z,21.00
2023-05-09T12:43:56.209Z,20.97
2023-05-09T12:46:23.361Z,21.07
2023-05-09T12:48:50.491Z,20.85
2023-05-09T12:51:21.325Z,21.08
2023-05-09T12:53:48.791Z,21.46
2023-05-09T12:56:18.101Z,21.37
2023-05-09T12:58:54.577Z,20.96
2023-05-09T13:01:29.094Z,21.41
2023-05-09T13:04:04.432Z,21.60
2023-05-09T13:06:31.403Z,21.11
2023-05-09T13:09:05.592Z,21.50
2023-05-09T13:11:32.343Z,21.73
2023-05-09T13:13:59.152Z,21.60
2023-05-09T13:16:26.001Z,21.97
2023-05-09T13:18:52.763Z,22.13
2023-05-09T13:21:20.264Z,21.94
2023-05-09T13:23:47.051Z,21.85
2023-05-09T13:26:13.788Z,21.48
2023-05-09T13:28:40.636Z,21.56
2023-05-09T13:31:08.171Z,21.87
2023-05-09T13:33:35.135Z,21.48
2023-05-09T13:36:01.995Z,21.79
2023-05-09T13:38:31.095Z,21.75
2023-05-09T13:40:58.381Z,21.73
2023-05-09T13:43:25.141Z,21.54
2023-05-09T13:45:51.975Z,21.78
2023-05-09T13:48:18.824Z,21.55
2023-05-09T13:50:46.752Z,21.29
2023-05-09T13:53:13.624Z,21.39
2023-05-09T13:55:40.355Z,21.75
2023-05-09T13:58:07.719Z,21.82
2023-05-09T14:00:34.703Z,21.77
2023-05-09T14:03:04.601Z,21.70
2023-05-09T14:05:31.942Z,21.62
2023-05-09T14:07:58.686Z,21.39
2023-05-09T14:10:28.205Z,21.43
2023-05-09T14:12:55.320Z,20.94
2023-05-09T14:15:22.402Z,21.15
2023-05-09T14:17:49.204Z,21.23
2023-05-09T14:20:16.449Z,20.91
2023-05-09T14:22:43.531Z,20.79
2023-05-09T14:25:10.481Z,20.60
2023-05-09T14:27:37.369Z,20.83
2023-05-09T14:30:05.257Z,21.01
2023-05-09T14:32:32.067Z,21.30
2023-05-09T14:34:58.903Z,21.46
2023-05-09T14:37:28.544Z,21.45
2023-05-09T14:39:55.555Z,21.28
2023-05-09T14:42:22.393Z,21.12
2023-05-09T14:44:49.202Z,21.25
2023-05-09T14:47:17.092Z,21.39
2023-05-09T14:49:44.361Z,21.49
2023-05-09T14:52:11.267Z,21.77
2023-05-09T14:54:38.053Z,21.61
2023-05-09T14:57:05.618Z,21.49
2023-05-09T14:59:33.663Z,21.48
2023-05-09T15:02:02.182Z,21.41
2023-05-09T15:04:31.189Z,21.21
2023-05-09T15:06:59.163Z,21.16
2023-05-09T15:09:26.873Z,20.97
2023-05-09T15:11:54.974Z,20.89
2023-05-09T15:14:21.813Z,20.96
2023-05-09T15:16:48.705Z,20.93
2023-05-09T15:19:15.591Z,20.97
2023-05-09T15:21:42.425Z,21.30
2023-05-09T15:24:09.171Z,21.55
2023-05-09T15:26:35.901Z,21.53
2023-05-09T15:29:02.779Z,21.15
2023-05-09T15:31:32.982Z,21.27
2023-05-09T15:34:00.708Z,21.41
2023-05-09T15:36:30.293Z,21.25
2023-05-09T15:38:57.218Z,21.45
2023-05-09T15:41:24.315Z,21.10
2023-05-09T15:43:51.823Z,21.23
2023-05-09T15:46:18.775Z,20.97
2023-05-09T15:48:45.717Z,20.70
2023-05-09T15:51:13.992Z,20.26
2023-05-09T15:53:40.846Z,20.25
2023-05-09T15:56:08.305Z,20.45
2023-05-09T15:58:35.333Z,20.35
2023-05-09T16:01:05.850Z,20.23
2023-05-09T16:03:32.888Z,20.52
2023-05-09T16:06:00.087Z,20.81
2023-05-09T16:08:26.899Z,21.13
2023-05-09T16:10:53.679Z,21.34
2023-05-09T16:13:20.476Z,20.83
2023-05-09T16:15:48.138Z,20.44
2023-05-09T16:18:15.022Z,20.24
2023-05-09T16:20:44.133Z,20.11
2023-05-09T16:23:11.644Z,20.23
2023-05-09T16:25:38.706Z,20.40
2023-05-09T16:28:07.374Z,20.10
2023-05-09T16:30:34.534Z,20.02
2023-05-09T16:33:01.550Z,20.00
2023-05-09T16:35:28.953Z,20.10
2023-05-09T16:37:55.688Z,19.87
2023-05-09T16:40:22.602Z,19.79
2023-05-09T16:42:49.778Z,19.54
2023-05-09T16:45:16.528Z,19.28
2023-05-09T16:47:43.442Z,19.16
2023-05-09T16:50:10.939Z,19.11
2023-05-09T16:52:37.782Z,18.85
2023-05-09T16:55:04.902Z,19.09
2023-05-09T16:57:31.826Z,18.89
2023-05-09T16:59:58.647Z,18.52
2023-05-09T17:02:25.520Z,18.48
2023-05-09T17:04:52.676Z,18.52
2023-05-09T17:07:19.530Z,18.58
2023-05-09T17:09:46.380Z,18.68
2023-05-09T17:12:17.588Z,18.53
2023-05-09T17:14:45.344Z,18.46
2023-05-09T17:17:13.139Z,18.60
2023-05-09T17:19:40.071Z,18.63
2023-05-09T17:22:07.994Z,18.55
2023-05-09T17:24:34.811Z,18.61
2023-05-09T17:27:02.125Z,18.90
2023-05-09T17:29:30.767Z,18.97
2023-05-09T17:31:58.337Z,19.21
2023-05-09T17:34:25.095Z,19.10
2023-05-09T17:36:52.422Z,18.81
2023-05-09T17:39:19.772Z,18.67
2023-05-09T17:41:46.738Z,18.32
2023-05-09T17:44:13.683Z,18.23
2023-05-09T17:46:41.217Z,17.90
2023-05-09T17:49:10.267Z,17.78
2023-05-09T17:51:36.995Z,17.69
2023-05-09T17:54:04.177Z,17.60
2023-05-09T17:56:31.431Z,17.30
2023-05-09T17:58:59.721Z,17.31
2023-05-09T18:01:26.712Z,17.43
2023-05-09T18:03:54.169Z,17.32
2023-05-09T18:06:21.172Z,17.34
2023-05-09T18:08:48.459Z,17.43
2023-05-09T18:11:15.423Z,17.25
2023-05-09T18:13:42.202Z,17.34
2023-05-09T18:16:09.012Z,17.18
2023-05-09T18:18:36.611Z,16.87
2023-05-09T18:21:05.047Z,16.87
2023-05-09T18:23:31.809Z,16.72
2023-05-09T18:25:58.630Z,16.73
2023-05-09T18:28:25.712Z,16.85
2023-05-09T18:30:57.254Z,16.84
2023-05-09T18:33:28.845Z,16.76
2023-05-09T18:35:55.767Z,16.67
2023-05-09T18:38:22.911Z,16.46
2023-05-09T18:40:51.846Z,16.45
2023-05-09T18:43:20.788Z,16.32
2023-05-09T18:45:48.645Z,16.07
2023-05-09T18:48:16.957Z,16.04
2023-05-09T18:50:43.712Z,16.10
2023-05-09T18:53:10.469Z,16.01
2023-05-09T18:55:37.235Z,15.98
2023-05-09T18:58:03.979Z,15.96
2023-05-09T19:00:31.046Z,15.91
2023-05-09T19:02:57.913Z,15.87
2023-05-09T19:05:26.189Z,15.77
2023-05-09T19:07:54.221Z,15.85
2023-05-09T19:10:21.117Z,15.81
2023-05-09T19:12:49.250Z,15.76
2023-05-09T19:15:16.230Z,15.79
2023-05-09T19:17:43.160Z,15.81
2023-05-09T19:20:10.613Z,15.80
2023-05-09T19:22:37.461Z,15.78
2023-05-09T19:25:04.376Z,15.64
2023-05-09T19:27:31.277Z,15.54
2023-05-09T19:29:59.465Z,15.52
2023-05-09T19:32:26.257Z,15.48
2023-05-09T19:34:53.079Z,15.50
2023-05-09T19:37:19.819Z,15.35
2023-05-09T19:39:46.605Z,15.33
2023-05-09T19:42:13.376Z,15.24
2023-05-09T19:44:40.546Z,15.35
2023-05-09T19:47:09.100Z,15.27
2023-05-09T19:49:35.920Z,15.27
2023-05-09T19:52:02.722Z,15.15
2023-05-09T19:54:29.539Z,15.14
2023-05-09T19:56:56.312Z,15.11
2023-05-09T19:59:23.472Z,15.14
2023-05-09T20:01:50.290Z,15.16
2023-05-09T20:04:21.693Z,15.11
2023-05-09T20:06:48.487Z,15.09
2023-05-09T20:09:17.990Z,15.09
2023-05-09T20:11:44.721Z,15.01
2023-05-09T20:14:11.566Z,14.85
2023-05-09T20:16:38.440Z,14.81
2023-05-09T20:19:07.720Z,14.72
2023-05-09T20:21:34.723Z,14.68
2023-05-09T20:24:01.934Z,14.55
2023-05-09T20:26:29.757Z,14.38
2023-05-09T20:29:01.488Z,14.34
2023-05-09T20:31:29.336Z,14.30
2023-05-09T20:33:57.850Z,14.14
2023-05-09T20:36:25.603Z,14.09
2023-05-09T20:38:52.356Z,14.04
2023-05-09T20:41:19.118Z,14.02
2023-05-09T20:43:45.972Z,13.89
2023-05-09T20:46:14.133Z,13.81
2023-05-09T20:48:41.083Z,13.72
2023-05-09T20:51:07.890Z,13.65
2023-05-09T20:53:35.127Z,13.62
2023-05-09T20:56:02.260Z,13.53
2023-05-09T20:58:32.752Z,13.50
2023-05-09T21:00:59.628Z,13.58
2023-05-09T21:03:26.578Z,13.39
2023-05-09T21:05:53.853Z,13.41
2023-05-09T21:08:20.570Z,13.35
2023-05-09T21:10:47.384Z,13.31
2023-05-09T21:13:14.166Z,13.32
2023-05-09T21:15:40.879Z,13.37
2023-05-09T21:18:07.715Z,13.23
2023-05-09T21:20:34.571Z,13.21
2023-05-09T21:23:01.290Z,13.21
2023-05-09T21:25:28.030Z,13.10
2023-05-09T21:27:54.826Z,13.10
2023-05-09T21:30:21.636Z,13.17
2023-05-09T21:32:51.296Z,13.10
2023-05-09T21:35:18.173Z,13.12
2023-05-09T21:37:46.150Z,13.03
2023-05-09T21:40:13.443Z,12.99
2023-05-09T21:42:41.218Z,12.93
2023-05-09T21:45:08.421Z,12.88
2023-05-09T21:47:35.746Z,12.91
2023-05-09T21:50:04.314Z,12.84
2023-05-09T21:52:31.094Z,12.74
2023-05-09T21:54:58.212Z,12.76
2023-05-09T21:57:25.045Z,12.74
2023-05-09T21:59:51.806Z,12.70
2023-05-09T22:02:18.579Z,12.56
2023-05-09T22:04:45.952Z,12.48
2023-05-09T22:07:12.656Z,12.45
2023-05-09T22:09:39.453Z,12.46
2023-05-09T22:12:06.397Z,12.51
2023-05-09T22:14:37.163Z,12.52
2023-05-09T22:17:08.902Z,12.69
2023-05-09T22:19:35.789Z,12.72
2023-05-09T22:22:02.550Z,12.75
2023-05-09T22:24:29.333Z,12.72
2023-05-09T22:26:56.292Z,12.89
2023-05-09T22:29:23.072Z,12.89
2023-05-09T22:31:50.003Z,12.97
2023-05-09T22:34:16.930Z,13.00
2023-05-09T22:36:43.657Z,12.92
2023-05-09T22:39:11.234Z,12.98
2023-05-09T22:41:38.014Z,12.91
2023-05-09T22:44:04.933Z,12.97
2023-05-09T22:46:31.829Z,12.74
2023-05-09T22:48:58.681Z,12.89
2023-05-09T22:51:25.486Z,12.91
2023-05-09T22:53:52.221Z,12.89
2023-05-09T22:56:18.946Z,12.93
2023-05-09T22:58:45.844Z,12.82
2023-05-09T23:01:12.698Z,12.78
2023-05-09T23:03:39.559Z,12.79
2023-05-09T23:06:06.564Z,12.74
2023-05-09T23:08:34.599Z,12.61
2023-05-09T23:11:01.398Z,12.57
2023-05-09T23:13:28.457Z,12.62
2023-05-09T23:15:55.308Z,12.61
2023-05-09T23:18:23.938Z,12.45
2023-05-09T23:20:50.944Z,12.48
2023-05-09T23:23:17.789Z,12.34
2023-05-09T23:25:44.641Z,12.26
2023-05-09T23:28:11.520Z,12.20
2023-05-09T23:30:38.498Z,12.16
2023-05-09T23:33:05.257Z,12.10
2023-05-09T23:35:32.160Z,12.00
2023-05-09T23:37:59.003Z,12.17
2023-05-09T23:40:25.836Z,12.11
2023-05-09T23:42:52.575Z,12.13
2023-05-09T23:45:19.454Z,12.16
2023-05-09T23:47:46.244Z,12.11
2023-05-09T23:50:13.506Z,12.18
2023-05-09T23:52:41.966Z,12.24
2023-05-09T23:55:09.421Z,12.24
2023-05-09T23:57:36.198Z,12.30
